sensor_id;sensor_type;location;lat;lon;timestamp;P1;durP1;ratioP1;P2;durP2;ratioP2
36327;SDS011;22354;50.012;8.264;2022-09-25T00:00:17;28.80;;;17.30;;
36327;SDS011;22354;50.012;8.264;2022-09-25T00:02:42;32.97;;;18.17;;
36327;SDS011;22354;50.012;8.264;2022-09-25T00:05:08;29.13;;;17.30;;
36327;SDS011;22354;50.012;8.264;2022-09-25T00:07:33;30.83;;;16.97;;
36327;SDS011;22354;50.012;8.264;2022-09-25T00:09:58;28.98;;;17.23;;
36327;SDS011;22354;50.012;8.264;2022-09-25T00:12:24;27.47;;;17.20;;
36327;SDS011;22354;50.012;8.264;2022-09-25T00:14:49;31.40;;;16.63;;
36327;SDS011;22354;50.012;8.264;2022-09-25T00:17:15;27.40;;;15.90;;
36327;SDS011;22354;50.012;8.264;2022-09-25T00:19:41;30.30;;;16.63;;
36327;SDS011;22354;50.012;8.264;2022-09-25T00:22:19;26.23;;;16.30;;
36327;SDS011;22354;50.012;8.264;2022-09-25T00:24:45;28.33;;;16.15;;
36327;SDS011;22354;50.012;8.264;2022-09-25T00:27:11;26.33;;;15.50;;
36327;SDS011;22354;50.012;8.264;2022-09-25T00:29:37;28.67;;;16.50;;
36327;SDS011;22354;50.012;8.264;2022-09-25T00:32:04;30.25;;;17.08;;
36327;SDS011;22354;50.012;8.264;2022-09-25T00:34:31;27.17;;;16.02;;
36327;SDS011;22354;50.012;8.264;2022-09-25T00:36:56;26.60;;;15.97;;
36327;SDS011;22354;50.012;8.264;2022-09-25T00:39:22;28.57;;;17.57;;
36327;SDS011;22354;50.012;8.264;2022-09-25T00:41:47;33.77;;;17.57;;
36327;SDS011;22354;50.012;8.264;2022-09-25T00:47:23;30.15;;;16.27;;
36327;SDS011;22354;50.012;8.264;2022-09-25T00:49:54;28.27;;;16.40;;
36327;SDS011;22354;50.012;8.264;2022-09-25T00:52:22;27.48;;;15.95;;
36327;SDS011;22354;50.012;8.264;2022-09-25T00:55:00;29.08;;;16.95;;
36327;SDS011;22354;50.012;8.264;2022-09-25T00:57:29;26.35;;;15.60;;
36327;SDS011;22354;50.012;8.264;2022-09-25T01:00:00;29.50;;;16.83;;
36327;SDS011;22354;50.012;8.264;2022-09-25T01:02:32;29.67;;;16.42;;
36327;SDS011;22354;50.012;8.264;2022-09-25T01:05:02;31.17;;;16.88;;
36327;SDS011;22354;50.012;8.264;2022-09-25T01:07:33;33.28;;;15.38;;
36327;SDS011;22354;50.012;8.264;2022-09-25T01:10:03;27.02;;;13.70;;
36327;SDS011;22354;50.012;8.264;2022-09-25T01:18:35;27.23;;;14.27;;
36327;SDS011;22354;50.012;8.264;2022-09-25T01:21:11;23.63;;;13.77;;
36327;SDS011;22354;50.012;8.264;2022-09-25T01:27:05;28.30;;;14.80;;
36327;SDS011;22354;50.012;8.264;2022-09-25T01:30:03;25.77;;;14.38;;
36327;SDS011;22354;50.012;8.264;2022-09-25T01:32:33;32.07;;;14.93;;
36327;SDS011;22354;50.012;8.264;2022-09-25T01:35:17;30.33;;;15.40;;
36327;SDS011;22354;50.012;8.264;2022-09-25T01:38:22;29.52;;;14.70;;
36327;SDS011;22354;50.012;8.264;2022-09-25T01:41:09;28.92;;;15.07;;
36327;SDS011;22354;50.012;8.264;2022-09-25T01:43:37;30.08;;;15.88;;
36327;SDS011;22354;50.012;8.264;2022-09-25T01:46:14;29.87;;;15.47;;
36327;SDS011;22354;50.012;8.264;2022-09-25T01:48:40;27.92;;;14.43;;
36327;SDS011;22354;50.012;8.264;2022-09-25T01:51:26;32.08;;;15.85;;
36327;SDS011;22354;50.012;8.264;2022-09-25T01:53:58;31.40;;;16.13;;
36327;SDS011;22354;50.012;8.264;2022-09-25T01:56:29;29.50;;;16.38;;
36327;SDS011;22354;50.012;8.264;2022-09-25T01:59:06;32.50;;;16.27;;
36327;SDS011;22354;50.012;8.264;2022-09-25T02:01:39;31.73;;;17.67;;
36327;SDS011;22354;50.012;8.264;2022-09-25T02:04:08;36.17;;;17.88;;
36327;SDS011;22354;50.012;8.264;2022-09-25T02:06:51;33.45;;;17.75;;
36327;SDS011;22354;50.012;8.264;2022-09-25T02:09:28;35.67;;;18.38;;
36327;SDS011;22354;50.012;8.264;2022-09-25T02:12:00;36.60;;;19.23;;
36327;SDS011;22354;50.012;8.264;2022-09-25T02:14:40;46.55;;;20.63;;
36327;SDS011;22354;50.012;8.264;2022-09-25T02:17:11;46.15;;;21.77;;
36327;SDS011;22354;50.012;8.264;2022-09-25T02:20:01;49.55;;;22.52;;
36327;SDS011;22354;50.012;8.264;2022-09-25T02:22:45;52.28;;;24.08;;
36327;SDS011;22354;50.012;8.264;2022-09-25T02:25:14;54.17;;;24.08;;
36327;SDS011;22354;50.012;8.264;2022-09-25T02:27:49;50.58;;;22.27;;
36327;SDS011;22354;50.012;8.264;2022-09-25T02:30:14;46.00;;;20.47;;
36327;SDS011;22354;50.012;8.264;2022-09-25T02:32:41;46.05;;;22.45;;
36327;SDS011;22354;50.012;8.264;2022-09-25T02:35:06;68.20;;;34.03;;
36327;SDS011;22354;50.012;8.264;2022-09-25T02:37:32;54.40;;;25.58;;
36327;SDS011;22354;50.012;8.264;2022-09-25T02:39:58;45.47;;;22.93;;
36327;SDS011;22354;50.012;8.264;2022-09-25T02:48:20;38.97;;;21.88;;
36327;SDS011;22354;50.012;8.264;2022-09-25T02:50:59;39.78;;;20.63;;
36327;SDS011;22354;50.012;8.264;2022-09-25T02:53:42;37.50;;;20.40;;
36327;SDS011;22354;50.012;8.264;2022-09-25T02:56:18;33.67;;;19.08;;
36327;SDS011;22354;50.012;8.264;2022-09-25T02:58:51;34.10;;;20.20;;
36327;SDS011;22354;50.012;8.264;2022-09-25T03:01:21;36.27;;;20.13;;
36327;SDS011;22354;50.012;8.264;2022-09-25T03:03:49;36.45;;;19.73;;
36327;SDS011;22354;50.012;8.264;2022-09-25T03:06:17;29.38;;;17.30;;
36327;SDS011;22354;50.012;8.264;2022-09-25T03:08:45;33.90;;;18.10;;
36327;SDS011;22354;50.012;8.264;2022-09-25T03:11:16;27.58;;;16.60;;
36327;SDS011;22354;50.012;8.264;2022-09-25T03:13:44;32.42;;;17.67;;
36327;SDS011;22354;50.012;8.264;2022-09-25T03:18:39;27.37;;;17.17;;
36327;SDS011;22354;50.012;8.264;2022-09-25T03:21:05;33.20;;;18.70;;
36327;SDS011;22354;50.012;8.264;2022-09-25T03:23:30;33.53;;;19.47;;
36327;SDS011;22354;50.012;8.264;2022-09-25T03:25:56;35.20;;;21.52;;
36327;SDS011;22354;50.012;8.264;2022-09-25T03:28:22;37.70;;;22.38;;
36327;SDS011;22354;50.012;8.264;2022-09-25T03:30:59;39.78;;;24.05;;
36327;SDS011;22354;50.012;8.264;2022-09-25T03:33:27;43.40;;;25.50;;
36327;SDS011;22354;50.012;8.264;2022-09-25T03:36:00;46.20;;;25.90;;
36327;SDS011;22354;50.012;8.264;2022-09-25T03:38:27;51.15;;;27.23;;
36327;SDS011;22354;50.012;8.264;2022-09-25T03:40:52;47.40;;;27.90;;
36327;SDS011;22354;50.012;8.264;2022-09-25T03:43:18;52.27;;;28.40;;
36327;SDS011;22354;50.012;8.264;2022-09-25T03:45:43;47.97;;;25.50;;
36327;SDS011;22354;50.012;8.264;2022-09-25T03:48:08;51.10;;;27.13;;
36327;SDS011;22354;50.012;8.264;2022-09-25T03:50:33;46.77;;;26.27;;
36327;SDS011;22354;50.012;8.264;2022-09-25T03:52:59;44.10;;;24.70;;
36327;SDS011;22354;50.012;8.264;2022-09-25T03:55:24;41.30;;;24.23;;
36327;SDS011;22354;50.012;8.264;2022-09-25T03:57:50;46.27;;;24.23;;
36327;SDS011;22354;50.012;8.264;2022-09-25T04:00:15;44.70;;;24.53;;
36327;SDS011;22354;50.012;8.264;2022-09-25T04:02:41;37.58;;;21.95;;
36327;SDS011;22354;50.012;8.264;2022-09-25T04:05:06;38.97;;;22.15;;
36327;SDS011;22354;50.012;8.264;2022-09-25T04:07:33;36.00;;;20.83;;
36327;SDS011;22354;50.012;8.264;2022-09-25T04:09:58;37.73;;;21.60;;
36327;SDS011;22354;50.012;8.264;2022-09-25T04:12:24;33.73;;;20.77;;
36327;SDS011;22354;50.012;8.264;2022-09-25T04:14:49;33.43;;;20.50;;
36327;SDS011;22354;50.012;8.264;2022-09-25T04:17:15;31.43;;;18.40;;
36327;SDS011;22354;50.012;8.264;2022-09-25T04:19:40;36.42;;;20.20;;
36327;SDS011;22354;50.012;8.264;2022-09-25T04:22:05;32.55;;;19.95;;
36327;SDS011;22354;50.012;8.264;2022-09-25T04:24:30;34.40;;;20.93;;
36327;SDS011;22354;50.012;8.264;2022-09-25T04:27:15;31.80;;;19.48;;
36327;SDS011;22354;50.012;8.264;2022-09-25T04:29:45;30.15;;;19.15;;
36327;SDS011;22354;50.012;8.264;2022-09-25T04:32:12;28.48;;;17.95;;
36327;SDS011;22354;50.012;8.264;2022-09-25T04:34:57;29.00;;;16.90;;
36327;SDS011;22354;50.012;8.264;2022-09-25T04:37:22;27.57;;;17.13;;
36327;SDS011;22354;50.012;8.264;2022-09-25T04:39:50;25.38;;;15.90;;
36327;SDS011;22354;50.012;8.264;2022-09-25T04:42:19;26.27;;;16.50;;
36327;SDS011;22354;50.012;8.264;2022-09-25T04:44:52;25.30;;;15.82;;
36327;SDS011;22354;50.012;8.264;2022-09-25T04:47:19;28.40;;;16.00;;
36327;SDS011;22354;50.012;8.264;2022-09-25T04:49:46;23.88;;;15.25;;
36327;SDS011;22354;50.012;8.264;2022-09-25T04:52:12;21.35;;;14.38;;
36327;SDS011;22354;50.012;8.264;2022-09-25T04:54:41;22.45;;;14.32;;
36327;SDS011;22354;50.012;8.264;2022-09-25T04:57:08;20.70;;;13.05;;
36327;SDS011;22354;50.012;8.264;2022-09-25T04:59:34;21.45;;;13.52;;
36327;SDS011;22354;50.012;8.264;2022-09-25T05:01:59;21.90;;;14.00;;
36327;SDS011;22354;50.012;8.264;2022-09-25T05:04:24;21.27;;;13.53;;
36327;SDS011;22354;50.012;8.264;2022-09-25T05:06:49;24.15;;;15.15;;
36327;SDS011;22354;50.012;8.264;2022-09-25T05:09:15;23.43;;;14.67;;
36327;SDS011;22354;50.012;8.264;2022-09-25T05:11:40;21.43;;;13.47;;
36327;SDS011;22354;50.012;8.264;2022-09-25T05:14:06;20.60;;;13.43;;
36327;SDS011;22354;50.012;8.264;2022-09-25T05:16:31;18.10;;;12.10;;
36327;SDS011;22354;50.012;8.264;2022-09-25T05:18:57;18.88;;;12.48;;
36327;SDS011;22354;50.012;8.264;2022-09-25T05:21:22;18.33;;;12.07;;
36327;SDS011;22354;50.012;8.264;2022-09-25T05:23:48;20.17;;;13.10;;
36327;SDS011;22354;50.012;8.264;2022-09-25T05:26:14;17.90;;;12.30;;
36327;SDS011;22354;50.012;8.264;2022-09-25T05:28:39;20.83;;;12.87;;
36327;SDS011;22354;50.012;8.264;2022-09-25T05:31:05;20.97;;;12.83;;
36327;SDS011;22354;50.012;8.264;2022-09-25T05:33:31;23.30;;;13.37;;
36327;SDS011;22354;50.012;8.264;2022-09-25T05:36:03;23.00;;;13.07;;
36327;SDS011;22354;50.012;8.264;2022-09-25T05:38:31;19.63;;;13.15;;
36327;SDS011;22354;50.012;8.264;2022-09-25T05:41:15;18.60;;;12.65;;
36327;SDS011;22354;50.012;8.264;2022-09-25T05:43:42;18.55;;;12.43;;
36327;SDS011;22354;50.012;8.264;2022-09-25T05:46:11;20.90;;;12.68;;
36327;SDS011;22354;50.012;8.264;2022-09-25T05:48:37;17.42;;;11.68;;
36327;SDS011;22354;50.012;8.264;2022-09-25T05:51:03;20.57;;;12.30;;
36327;SDS011;22354;50.012;8.264;2022-09-25T05:53:28;16.65;;;11.07;;
36327;SDS011;22354;50.012;8.264;2022-09-25T05:55:57;19.30;;;12.25;;
36327;SDS011;22354;50.012;8.264;2022-09-25T05:58:24;18.67;;;12.45;;
36327;SDS011;22354;50.012;8.264;2022-09-25T06:00:50;21.15;;;13.23;;
36327;SDS011;22354;50.012;8.264;2022-09-25T06:03:16;20.40;;;13.53;;
36327;SDS011;22354;50.012;8.264;2022-09-25T06:05:43;20.85;;;13.45;;
36327;SDS011;22354;50.012;8.264;2022-09-25T06:08:10;26.42;;;16.20;;
36327;SDS011;22354;50.012;8.264;2022-09-25T06:10:35;27.60;;;17.35;;
36327;SDS011;22354;50.012;8.264;2022-09-25T06:13:01;25.83;;;16.73;;
36327;SDS011;22354;50.012;8.264;2022-09-25T06:15:32;21.00;;;13.85;;
36327;SDS011;22354;50.012;8.264;2022-09-25T06:18:00;19.40;;;11.90;;
36327;SDS011;22354;50.012;8.264;2022-09-25T06:20:26;19.63;;;14.35;;
36327;SDS011;22354;50.012;8.264;2022-09-25T06:22:54;25.23;;;16.70;;
36327;SDS011;22354;50.012;8.264;2022-09-25T06:25:21;27.50;;;16.63;;
36327;SDS011;22354;50.012;8.264;2022-09-25T06:27:57;22.30;;;13.77;;
36327;SDS011;22354;50.012;8.264;2022-09-25T06:30:25;18.70;;;12.73;;
36327;SDS011;22354;50.012;8.264;2022-09-25T06:32:55;17.60;;;11.63;;
36327;SDS011;22354;50.012;8.264;2022-09-25T06:35:21;17.52;;;10.77;;
36327;SDS011;22354;50.012;8.264;2022-09-25T06:37:46;18.00;;;11.07;;
36327;SDS011;22354;50.012;8.264;2022-09-25T06:40:12;17.17;;;11.23;;
36327;SDS011;22354;50.012;8.264;2022-09-25T06:42:37;19.25;;;11.95;;
36327;SDS011;22354;50.012;8.264;2022-09-25T06:45:03;16.27;;;10.85;;
36327;SDS011;22354;50.012;8.264;2022-09-25T06:47:28;16.47;;;10.30;;
36327;SDS011;22354;50.012;8.264;2022-09-25T06:49:53;12.03;;;8.93;;
36327;SDS011;22354;50.012;8.264;2022-09-25T06:52:19;11.03;;;8.13;;
36327;SDS011;22354;50.012;8.264;2022-09-25T06:54:44;14.10;;;8.95;;
36327;SDS011;22354;50.012;8.264;2022-09-25T06:57:10;12.98;;;8.45;;
36327;SDS011;22354;50.012;8.264;2022-09-25T06:59:36;13.95;;;7.97;;
36327;SDS011;22354;50.012;8.264;2022-09-25T07:02:02;12.67;;;8.67;;
36327;SDS011;22354;50.012;8.264;2022-09-25T07:04:47;11.63;;;8.40;;
36327;SDS011;22354;50.012;8.264;2022-09-25T07:07:15;11.43;;;7.37;;
36327;SDS011;22354;50.012;8.264;2022-09-25T07:09:43;10.75;;;7.70;;
36327;SDS011;22354;50.012;8.264;2022-09-25T07:12:09;10.80;;;7.60;;
36327;SDS011;22354;50.012;8.264;2022-09-25T07:14:35;9.98;;;6.85;;
36327;SDS011;22354;50.012;8.264;2022-09-25T07:17:00;8.93;;;6.93;;
36327;SDS011;22354;50.012;8.264;2022-09-25T07:19:25;9.80;;;7.03;;
36327;SDS011;22354;50.012;8.264;2022-09-25T07:21:51;9.43;;;7.30;;
36327;SDS011;22354;50.012;8.264;2022-09-25T07:24:19;10.95;;;7.32;;
36327;SDS011;22354;50.012;8.264;2022-09-25T07:26:46;9.00;;;6.68;;
36327;SDS011;22354;50.012;8.264;2022-09-25T07:29:11;12.33;;;6.40;;
36327;SDS011;22354;50.012;8.264;2022-09-25T07:31:37;9.33;;;6.70;;
36327;SDS011;22354;50.012;8.264;2022-09-25T07:34:02;9.63;;;6.70;;
36327;SDS011;22354;50.012;8.264;2022-09-25T07:36:32;11.40;;;7.53;;
36327;SDS011;22354;50.012;8.264;2022-09-25T07:38:58;10.40;;;6.97;;
36327;SDS011;22354;50.012;8.264;2022-09-25T07:41:23;10.83;;;7.77;;
36327;SDS011;22354;50.012;8.264;2022-09-25T07:43:52;9.30;;;7.40;;
36327;SDS011;22354;50.012;8.264;2022-09-25T07:46:20;9.87;;;7.53;;
36327;SDS011;22354;50.012;8.264;2022-09-25T07:48:49;9.27;;;7.35;;
36327;SDS011;22354;50.012;8.264;2022-09-25T07:51:15;10.68;;;7.65;;
36327;SDS011;22354;50.012;8.264;2022-09-25T07:53:41;10.52;;;6.50;;
36327;SDS011;22354;50.012;8.264;2022-09-25T07:56:07;11.50;;;7.38;;
36327;SDS011;22354;50.012;8.264;2022-09-25T07:58:34;8.82;;;6.80;;
36327;SDS011;22354;50.012;8.264;2022-09-25T08:01:00;12.73;;;7.20;;
36327;SDS011;22354;50.012;8.264;2022-09-25T08:03:27;8.50;;;6.50;;
36327;SDS011;22354;50.012;8.264;2022-09-25T08:05:59;9.90;;;6.90;;
36327;SDS011;22354;50.012;8.264;2022-09-25T08:08:29;7.97;;;6.35;;
36327;SDS011;22354;50.012;8.264;2022-09-25T08:11:00;9.43;;;7.00;;
36327;SDS011;22354;50.012;8.264;2022-09-25T08:13:27;8.90;;;6.65;;
36327;SDS011;22354;50.012;8.264;2022-09-25T08:15:54;9.48;;;6.18;;
36327;SDS011;22354;50.012;8.264;2022-09-25T08:18:20;10.35;;;6.93;;
36327;SDS011;22354;50.012;8.264;2022-09-25T08:20:45;9.23;;;6.33;;
36327;SDS011;22354;50.012;8.264;2022-09-25T08:23:10;10.55;;;7.18;;
36327;SDS011;22354;50.012;8.264;2022-09-25T08:25:36;10.60;;;7.93;;
36327;SDS011;22354;50.012;8.264;2022-09-25T08:28:01;10.53;;;7.57;;
36327;SDS011;22354;50.012;8.264;2022-09-25T08:30:27;10.53;;;7.13;;
36327;SDS011;22354;50.012;8.264;2022-09-25T08:32:53;9.40;;;6.75;;
36327;SDS011;22354;50.012;8.264;2022-09-25T08:35:18;10.15;;;6.63;;
36327;SDS011;22354;50.012;8.264;2022-09-25T08:37:43;14.63;;;8.93;;
36327;SDS011;22354;50.012;8.264;2022-09-25T08:40:19;14.07;;;9.48;;
36327;SDS011;22354;50.012;8.264;2022-09-25T08:42:50;13.13;;;9.40;;
36327;SDS011;22354;50.012;8.264;2022-09-25T08:45:25;15.20;;;10.60;;
36327;SDS011;22354;50.012;8.264;2022-09-25T08:48:19;17.10;;;10.70;;
36327;SDS011;22354;50.012;8.264;2022-09-25T08:51:07;16.52;;;11.82;;
36327;SDS011;22354;50.012;8.264;2022-09-25T08:53:33;19.40;;;12.52;;
36327;SDS011;22354;50.012;8.264;2022-09-25T08:55:59;19.80;;;12.90;;
36327;SDS011;22354;50.012;8.264;2022-09-25T08:58:40;17.40;;;12.32;;
36327;SDS011;22354;50.012;8.264;2022-09-25T09:01:17;19.38;;;12.73;;
36327;SDS011;22354;50.012;8.264;2022-09-25T09:06:29;17.77;;;12.27;;
36327;SDS011;22354;50.012;8.264;2022-09-25T09:08:59;18.25;;;12.18;;
36327;SDS011;22354;50.012;8.264;2022-09-25T09:11:31;18.48;;;12.40;;
36327;SDS011;22354;50.012;8.264;2022-09-25T09:14:06;21.00;;;13.00;;
36327;SDS011;22354;50.012;8.264;2022-09-25T09:19:10;21.05;;;12.38;;
36327;SDS011;22354;50.012;8.264;2022-09-25T09:22:24;21.40;;;13.52;;
36327;SDS011;22354;50.012;8.264;2022-09-25T09:24:30;17.48;;;13.13;;
36327;SDS011;22354;50.012;8.264;2022-09-25T09:35:09;18.60;;;12.75;;
36327;SDS011;22354;50.012;8.264;2022-09-25T09:43:12;17.95;;;12.45;;
36327;SDS011;22354;50.012;8.264;2022-09-25T09:46:02;17.85;;;11.98;;
36327;SDS011;22354;50.012;8.264;2022-09-25T09:51:34;20.70;;;12.90;;
36327;SDS011;22354;50.012;8.264;2022-09-25T09:54:10;20.13;;;13.10;;
36327;SDS011;22354;50.012;8.264;2022-09-25T09:56:39;20.05;;;11.65;;
36327;SDS011;22354;50.012;8.264;2022-09-25T09:59:22;18.13;;;12.73;;
36327;SDS011;22354;50.012;8.264;2022-09-25T10:01:57;19.50;;;12.80;;
36327;SDS011;22354;50.012;8.264;2022-09-25T10:04:34;21.52;;;12.57;;
36327;SDS011;22354;50.012;8.264;2022-09-25T10:07:03;22.02;;;13.32;;
36327;SDS011;22354;50.012;8.264;2022-09-25T10:09:32;19.57;;;13.83;;
36327;SDS011;22354;50.012;8.264;2022-09-25T10:12:03;20.00;;;13.82;;
36327;SDS011;22354;50.012;8.264;2022-09-25T10:14:33;21.67;;;15.40;;
36327;SDS011;22354;50.012;8.264;2022-09-25T10:17:02;21.77;;;15.27;;
36327;SDS011;22354;50.012;8.264;2022-09-25T10:19:30;21.40;;;14.00;;
36327;SDS011;22354;50.012;8.264;2022-09-25T10:22:09;22.60;;;14.43;;
36327;SDS011;22354;50.012;8.264;2022-09-25T10:24:49;19.63;;;13.43;;
36327;SDS011;22354;50.012;8.264;2022-09-25T10:32:43;23.97;;;15.27;;
36327;SDS011;22354;50.012;8.264;2022-09-25T10:35:15;21.25;;;14.73;;
36327;SDS011;22354;50.012;8.264;2022-09-25T10:37:43;22.57;;;14.63;;
36327;SDS011;22354;50.012;8.264;2022-09-25T10:42:48;19.95;;;13.65;;
36327;SDS011;22354;50.012;8.264;2022-09-25T10:45:30;22.23;;;14.70;;
36327;SDS011;22354;50.012;8.264;2022-09-25T10:47:56;21.65;;;13.75;;
36327;SDS011;22354;50.012;8.264;2022-09-25T10:50:40;17.40;;;10.98;;
36327;SDS011;22354;50.012;8.264;2022-09-25T10:53:09;15.70;;;10.10;;
36327;SDS011;22354;50.012;8.264;2022-09-25T10:55:55;10.80;;;8.13;;
36327;SDS011;22354;50.012;8.264;2022-09-25T10:58:28;11.98;;;7.95;;
36327;SDS011;22354;50.012;8.264;2022-09-25T11:00:59;12.02;;;7.80;;
36327;SDS011;22354;50.012;8.264;2022-09-25T11:03:32;10.57;;;5.70;;
36327;SDS011;22354;50.012;8.264;2022-09-25T11:06:03;7.90;;;5.63;;
36327;SDS011;22354;50.012;8.264;2022-09-25T11:08:34;9.60;;;6.18;;
36327;SDS011;22354;50.012;8.264;2022-09-25T11:11:05;8.50;;;6.32;;
36327;SDS011;22354;50.012;8.264;2022-09-25T11:13:39;13.70;;;6.15;;
36327;SDS011;22354;50.012;8.264;2022-09-25T11:16:10;8.00;;;5.28;;
36327;SDS011;22354;50.012;8.264;2022-09-25T11:18:37;9.57;;;5.20;;
36327;SDS011;22354;50.012;8.264;2022-09-25T11:21:03;7.13;;;4.95;;
36327;SDS011;22354;50.012;8.264;2022-09-25T11:23:35;6.07;;;4.77;;
36327;SDS011;22354;50.012;8.264;2022-09-25T11:28:45;7.15;;;4.10;;
36327;SDS011;22354;50.012;8.264;2022-09-25T11:33:49;6.20;;;4.03;;
36327;SDS011;22354;50.012;8.264;2022-09-25T11:36:31;6.75;;;4.20;;
36327;SDS011;22354;50.012;8.264;2022-09-25T11:39:46;8.00;;;3.88;;
36327;SDS011;22354;50.012;8.264;2022-09-25T11:42:34;3.35;;;2.92;;
36327;SDS011;22354;50.012;8.264;2022-09-25T11:45:13;7.00;;;4.05;;
36327;SDS011;22354;50.012;8.264;2022-09-25T11:50:13;6.47;;;3.60;;
36327;SDS011;22354;50.012;8.264;2022-09-25T11:52:51;6.70;;;3.35;;
36327;SDS011;22354;50.012;8.264;2022-09-25T12:01:11;5.82;;;3.45;;
36327;SDS011;22354;50.012;8.264;2022-09-25T12:06:18;5.60;;;3.35;;
36327;SDS011;22354;50.012;8.264;2022-09-25T12:12:05;5.45;;;3.28;;
36327;SDS011;22354;50.012;8.264;2022-09-25T12:15:02;5.88;;;3.30;;
36327;SDS011;22354;50.012;8.264;2022-09-25T12:17:42;4.38;;;3.20;;
36327;SDS011;22354;50.012;8.264;2022-09-25T12:20:26;4.35;;;3.28;;
36327;SDS011;22354;50.012;8.264;2022-09-25T12:23:25;5.90;;;3.20;;
36327;SDS011;22354;50.012;8.264;2022-09-25T12:31:40;4.88;;;3.08;;
36327;SDS011;22354;50.012;8.264;2022-09-25T12:36:51;3.38;;;2.40;;
36327;SDS011;22354;50.012;8.264;2022-09-25T12:39:27;2.40;;;2.13;;
36327;SDS011;22354;50.012;8.264;2022-09-25T12:42:05;3.63;;;1.90;;
36327;SDS011;22354;50.012;8.264;2022-09-25T12:44:58;8.07;;;2.80;;
36327;SDS011;22354;50.012;8.264;2022-09-25T12:47:35;4.65;;;2.30;;
36327;SDS011;22354;50.012;8.264;2022-09-25T12:52:45;3.17;;;2.22;;
36327;SDS011;22354;50.012;8.264;2022-09-25T12:55:17;2.53;;;2.13;;
36327;SDS011;22354;50.012;8.264;2022-09-25T12:57:58;2.60;;;1.80;;
36327;SDS011;22354;50.012;8.264;2022-09-25T13:00:34;3.45;;;1.80;;
36327;SDS011;22354;50.012;8.264;2022-09-25T13:03:10;2.03;;;1.80;;
36327;SDS011;22354;50.012;8.264;2022-09-25T13:05:40;2.13;;;1.88;;
36327;SDS011;22354;50.012;8.264;2022-09-25T13:08:26;1.92;;;1.70;;
36327;SDS011;22354;50.012;8.264;2022-09-25T13:11:03;4.40;;;1.80;;
36327;SDS011;22354;50.012;8.264;2022-09-25T13:13:45;4.65;;;1.80;;
36327;SDS011;22354;50.012;8.264;2022-09-25T13:16:13;3.23;;;1.60;;
36327;SDS011;22354;50.012;8.264;2022-09-25T13:18:47;3.15;;;1.75;;
36327;SDS011;22354;50.012;8.264;2022-09-25T13:21:29;3.00;;;1.67;;
36327;SDS011;22354;50.012;8.264;2022-09-25T13:23:57;3.75;;;1.70;;
36327;SDS011;22354;50.012;8.264;2022-09-25T13:26:23;1.90;;;1.70;;
36327;SDS011;22354;50.012;8.264;2022-09-25T13:29:03;2.80;;;1.80;;
36327;SDS011;22354;50.012;8.264;2022-09-25T13:31:38;3.25;;;1.90;;
36327;SDS011;22354;50.012;8.264;2022-09-25T13:34:09;5.88;;;1.98;;
36327;SDS011;22354;50.012;8.264;2022-09-25T13:36:44;7.50;;;2.10;;
36327;SDS011;22354;50.012;8.264;2022-09-25T13:39:16;5.75;;;2.17;;
36327;SDS011;22354;50.012;8.264;2022-09-25T13:42:04;3.67;;;2.10;;
36327;SDS011;22354;50.012;8.264;2022-09-25T13:49:51;3.85;;;2.20;;
36327;SDS011;22354;50.012;8.264;2022-09-25T13:52:31;6.72;;;2.30;;
36327;SDS011;22354;50.012;8.264;2022-09-25T13:55:39;4.88;;;2.40;;
36327;SDS011;22354;50.012;8.264;2022-09-25T13:58:25;5.80;;;2.80;;
36327;SDS011;22354;50.012;8.264;2022-09-25T14:00:55;5.63;;;2.40;;
36327;SDS011;22354;50.012;8.264;2022-09-25T14:03:32;6.67;;;2.17;;
36327;SDS011;22354;50.012;8.264;2022-09-25T14:06:21;5.10;;;2.40;;
36327;SDS011;22354;50.012;8.264;2022-09-25T14:08:48;4.05;;;2.40;;
36327;SDS011;22354;50.012;8.264;2022-09-25T14:11:16;5.67;;;2.63;;
36327;SDS011;22354;50.012;8.264;2022-09-25T14:13:46;4.72;;;2.60;;
36327;SDS011;22354;50.012;8.264;2022-09-25T14:16:21;6.75;;;2.67;;
36327;SDS011;22354;50.012;8.264;2022-09-25T14:18:51;6.53;;;2.45;;
36327;SDS011;22354;50.012;8.264;2022-09-25T14:21:19;5.50;;;2.13;;
36327;SDS011;22354;50.012;8.264;2022-09-25T14:23:47;4.20;;;1.90;;
36327;SDS011;22354;50.012;8.264;2022-09-25T14:26:16;3.33;;;2.00;;
36327;SDS011;22354;50.012;8.264;2022-09-25T14:28:45;6.95;;;2.60;;
36327;SDS011;22354;50.012;8.264;2022-09-25T14:48:16;6.70;;;3.17;;
36327;SDS011;22354;50.012;8.264;2022-09-25T14:50:50;6.63;;;2.83;;
36327;SDS011;22354;50.012;8.264;2022-09-25T14:53:31;8.32;;;2.90;;
36327;SDS011;22354;50.012;8.264;2022-09-25T14:56:00;6.93;;;2.50;;
36327;SDS011;22354;50.012;8.264;2022-09-25T14:58:29;5.60;;;2.38;;
36327;SDS011;22354;50.012;8.264;2022-09-25T15:00:57;5.70;;;2.22;;
36327;SDS011;22354;50.012;8.264;2022-09-25T15:03:29;3.53;;;2.05;;
36327;SDS011;22354;50.012;8.264;2022-09-25T15:05:58;3.78;;;1.90;;
36327;SDS011;22354;50.012;8.264;2022-09-25T15:08:36;4.28;;;2.28;;
36327;SDS011;22354;50.012;8.264;2022-09-25T15:11:09;4.68;;;2.10;;
36327;SDS011;22354;50.012;8.264;2022-09-25T15:13:37;8.23;;;2.28;;
36327;SDS011;22354;50.012;8.264;2022-09-25T15:16:02;4.70;;;2.30;;
36327;SDS011;22354;50.012;8.264;2022-09-25T15:18:51;4.60;;;2.17;;
36327;SDS011;22354;50.012;8.264;2022-09-25T15:21:28;7.57;;;2.47;;
36327;SDS011;22354;50.012;8.264;2022-09-25T15:23:57;6.47;;;2.40;;
36327;SDS011;22354;50.012;8.264;2022-09-25T15:26:28;8.07;;;2.30;;
36327;SDS011;22354;50.012;8.264;2022-09-25T15:28:55;5.80;;;2.50;;
36327;SDS011;22354;50.012;8.264;2022-09-25T15:31:21;6.38;;;2.30;;
36327;SDS011;22354;50.012;8.264;2022-09-25T15:34:00;6.65;;;2.70;;
36327;SDS011;22354;50.012;8.264;2022-09-25T15:36:27;7.55;;;2.60;;
36327;SDS011;22354;50.012;8.264;2022-09-25T15:38:54;7.17;;;2.17;;
36327;SDS011;22354;50.012;8.264;2022-09-25T15:41:22;3.67;;;2.00;;
36327;SDS011;22354;50.012;8.264;2022-09-25T15:43:48;8.00;;;2.40;;
36327;SDS011;22354;50.012;8.264;2022-09-25T15:46:33;3.97;;;1.97;;
36327;SDS011;22354;50.012;8.264;2022-09-25T15:49:02;7.00;;;1.80;;
36327;SDS011;22354;50.012;8.264;2022-09-25T15:51:29;4.45;;;1.50;;
36327;SDS011;22354;50.012;8.264;2022-09-25T15:54:01;7.05;;;2.38;;
36327;SDS011;22354;50.012;8.264;2022-09-25T15:56:38;5.40;;;1.40;;
36327;SDS011;22354;50.012;8.264;2022-09-25T15:59:15;5.43;;;1.40;;
36327;SDS011;22354;50.012;8.264;2022-09-25T16:01:45;4.80;;;1.60;;
36327;SDS011;22354;50.012;8.264;2022-09-25T16:04:29;3.88;;;1.77;;
36327;SDS011;22354;50.012;8.264;2022-09-25T16:07:27;7.72;;;2.10;;
36327;SDS011;22354;50.012;8.264;2022-09-25T16:09:56;5.43;;;1.50;;
36327;SDS011;22354;50.012;8.264;2022-09-25T16:12:32;6.15;;;1.83;;
36327;SDS011;22354;50.012;8.264;2022-09-25T16:17:57;5.00;;;1.38;;
36327;SDS011;22354;50.012;8.264;2022-09-25T16:20:28;5.53;;;1.40;;
36327;SDS011;22354;50.012;8.264;2022-09-25T16:22:56;4.50;;;1.35;;
36327;SDS011;22354;50.012;8.264;2022-09-25T16:25:36;6.32;;;2.00;;
36327;SDS011;22354;50.012;8.264;2022-09-25T16:28:08;5.25;;;1.83;;
36327;SDS011;22354;50.012;8.264;2022-09-25T16:31:05;5.30;;;1.77;;
36327;SDS011;22354;50.012;8.264;2022-09-25T16:33:46;5.47;;;1.88;;
36327;SDS011;22354;50.012;8.264;2022-09-25T16:36:15;4.95;;;1.65;;
36327;SDS011;22354;50.012;8.264;2022-09-25T16:38:43;4.25;;;1.60;;
36327;SDS011;22354;50.012;8.264;2022-09-25T16:41:31;6.28;;;1.98;;